sensor_id;sensor_type;location;lat;lon;timestamp;temperature;humidity
68098;DHT22;54886;47.036;15.466;2023-05-08T00:00:18;15.34;79.40
68098;DHT22;54886;47.036;15.466;2023-05-08T00:02:43;15.32;79.08
68098;DHT22;54886;47.036;15.466;2023-05-08T00:05:09;15.31;78.74
68098;DHT22;54886;47.036;15.466;2023-05-08T00:07:35;15.24;79.24
68098;DHT22;54886;47.036;15.466;2023-05-08T00:10:01;15.14;79.34
68098;DHT22;54886;47.036;15.466;2023-05-08T00:12:27;15.07;79.29
68098;DHT22;54886;47.036;15.466;2023-05-08T00:14:52;15.06;79.19
68098;DHT22;54886;47.036;15.466;2023-05-08T00:17:18;15.04;79.00
68098;DHT22;54886;47.036;15.466;2023-05-08T00:19:43;14.95;79.53
68098;DHT22;54886;47.036;15.466;2023-05-08T00:22:08;14.95;79.74
68098;DHT22;54886;47.036;15.466;2023-05-08T00:24:34;14.92;79.76
68098;DHT22;54886;47.036;15.466;2023-05-08T00:26:59;14.89;78.49
68098;DHT22;54886;47.036;15.466;2023-05-08T00:29:25;14.83;78.54
68098;DHT22;54886;47.036;15.466;2023-05-08T00:31:50;14.78;79.00
68098;DHT22;54886;47.036;15.466;2023-05-08T00:34:16;14.68;78.39
68098;DHT22;54886;47.036;15.466;2023-05-08T00:36:41;14.72;78.24
68098;DHT22;54886;47.036;15.466;2023-05-08T00:39:07;14.67;78.05
68098;DHT22;54886;47.036;15.466;2023-05-08T00:41:32;14.64;77.82
68098;DHT22;54886;47.036;15.466;2023-05-08T00:43:58;14.61;78.29
68098;DHT22;54886;47.036;15.466;2023-05-08T00:46:23;14.58;78.65
68098;DHT22;54886;47.036;15.466;2023-05-08T00:48:49;14.57;78.41
68098;DHT22;54886;47.036;15.466;2023-05-08T00:51:15;14.58;78.14
68098;DHT22;54886;47.036;15.466;2023-05-08T00:53:42;14.58;77.76
68098;DHT22;54886;47.036;15.466;2023-05-08T00:56:13;14.58;77.68
68098;DHT22;54886;47.036;15.466;2023-05-08T00:58:40;14.54;78.74
68098;DHT22;54886;47.036;15.466;2023-05-08T01:01:06;14.45;79.56
68098;DHT22;54886;47.036;15.466;2023-05-08T01:03:34;14.37;79.23
68098;DHT22;54886;47.036;15.466;2023-05-08T01:06:01;14.37;78.02
68098;DHT22;54886;47.036;15.466;2023-05-08T01:08:26;14.27;79.04
68098;DHT22;54886;47.036;15.466;2023-05-08T01:16:28;14.12;77.37
68098;DHT22;54886;47.036;15.466;2023-05-08T01:21:57;14.02;77.63
68098;DHT22;54886;47.036;15.466;2023-05-08T01:27:13;14.06;78.06
68098;DHT22;54886;47.036;15.466;2023-05-08T01:32:53;13.85;78.20
68098;DHT22;54886;47.036;15.466;2023-05-08T01:35:33;13.82;78.18
68098;DHT22;54886;47.036;15.466;2023-05-08T01:38:09;13.86;77.40
68098;DHT22;54886;47.036;15.466;2023-05-08T01:43:17;13.72;77.52
68098;DHT22;54886;47.036;15.466;2023-05-08T01:45:46;13.61;78.10
68098;DHT22;54886;47.036;15.466;2023-05-08T01:48:21;13.51;78.42
68098;DHT22;54886;47.036;15.466;2023-05-08T01:50:54;13.48;78.43
68098;DHT22;54886;47.036;15.466;2023-05-08T01:53:27;13.37;78.49
68098;DHT22;54886;47.036;15.466;2023-05-08T01:55:57;13.38;78.07
68098;DHT22;54886;47.036;15.466;2023-05-08T01:58:24;13.32;77.25
68098;DHT22;54886;47.036;15.466;2023-05-08T02:00:51;13.40;77.16
68098;DHT22;54886;47.036;15.466;2023-05-08T02:03:18;13.42;77.20
68098;DHT22;54886;47.036;15.466;2023-05-08T02:05:44;13.30;78.01
68098;DHT22;54886;47.036;15.466;2023-05-08T02:08:13;13.24;78.19
68098;DHT22;54886;47.036;15.466;2023-05-08T02:10:41;13.11;78.54
68098;DHT22;54886;47.036;15.466;2023-05-08T02:13:09;13.10;78.97
68098;DHT22;54886;47.036;15.466;2023-05-08T02:15:36;13.06;78.94
68098;DHT22;54886;47.036;15.466;2023-05-08T02:18:04;13.08;78.66
68098;DHT22;54886;47.036;15.466;2023-05-08T02:20:31;13.11;77.95
68098;DHT22;54886;47.036;15.466;2023-05-08T02:22:57;13.11;77.54
68098;DHT22;54886;47.036;15.466;2023-05-08T02:25:24;12.96;78.01
68098;DHT22;54886;47.036;15.466;2023-05-08T02:27:52;12.95;77.38
68098;DHT22;54886;47.036;15.466;2023-05-08T02:30:20;12.92;77.77
68098;DHT22;54886;47.036;15.466;2023-05-08T02:32:47;12.89;77.80
68098;DHT22;54886;47.036;15.466;2023-05-08T02:35:15;12.86;77.16
68098;DHT22;54886;47.036;15.466;2023-05-08T02:37:47;12.79;76.87
68098;DHT22;54886;47.036;15.466;2023-05-08T02:40:13;12.78;76.56
68098;DHT22;54886;47.036;15.466;2023-05-08T02:42:40;12.75;77.34
68098;DHT22;54886;47.036;15.466;2023-05-08T02:45:07;12.73;77.69
68098;DHT22;54886;47.036;15.466;2023-05-08T02:50:37;12.62;75.99
68098;DHT22;54886;47.036;15.466;2023-05-08T02:53:10;12.62;75.20
68098;DHT22;54886;47.036;15.466;2023-05-08T02:55:44;12.51;76.19
68098;DHT22;54886;47.036;15.466;2023-05-08T02:58:32;12.53;75.65
68098;DHT22;54886;47.036;15.466;2023-05-08T03:00:59;12.38;76.63
68098;DHT22;54886;47.036;15.466;2023-05-08T03:04:24;12.32;77.58
68098;DHT22;54886;47.036;15.466;2023-05-08T03:06:44;12.28;77.04
68098;DHT22;54886;47.036;15.466;2023-05-08T03:09:15;12.25;76.27
68098;DHT22;54886;47.036;15.466;2023-05-08T03:11:44;12.20;76.44
68098;DHT22;54886;47.036;15.466;2023-05-08T03:14:13;12.20;76.44
68098;DHT22;54886;47.036;15.466;2023-05-08T03:16:41;12.20;76.51
68098;DHT22;54886;47.036;15.466;2023-05-08T03:19:15;12.20;76.25
68098;DHT22;54886;47.036;15.466;2023-05-08T03:21:43;12.12;76.88
68098;DHT22;54886;47.036;15.466;2023-05-08T03:24:10;12.06;76.71
68098;DHT22;54886;47.036;15.466;2023-05-08T03:26:38;11.94;76.79
68098;DHT22;54886;47.036;15.466;2023-05-08T03:29:04;11.90;77.51
68098;DHT22;54886;47.036;15.466;2023-05-08T03:31:31;11.87;77.58
68098;DHT22;54886;47.036;15.466;2023-05-08T03:33:57;11.87;77.44
68098;DHT22;54886;47.036;15.466;2023-05-08T03:36:24;11.90;77.05
68098;DHT22;54886;47.036;15.466;2023-05-08T03:38:50;11.79;77.09
68098;DHT22;54886;47.036;15.466;2023-05-08T03:41:16;11.85;76.89
68098;DHT22;54886;47.036;15.466;2023-05-08T03:43:42;11.82;77.96
68098;DHT22;54886;47.036;15.466;2023-05-08T03:46:08;11.79;77.42
68098;DHT22;54886;47.036;15.466;2023-05-08T03:48:34;11.69;78.21
68098;DHT22;54886;47.036;15.466;2023-05-08T03:51:01;11.70;77.62
68098;DHT22;54886;47.036;15.466;2023-05-08T03:53:28;11.65;76.69
68098;DHT22;54886;47.036;15.466;2023-05-08T03:55:55;11.59;77.40
68098;DHT22;54886;47.036;15.466;2023-05-08T03:58:46;11.65;76.23
68098;DHT22;54886;47.036;15.466;2023-05-08T04:06:36;11.59;75.97
68098;DHT22;54886;47.036;15.466;2023-05-08T04:09:19;11.59;76.46
68098;DHT22;54886;47.036;15.466;2023-05-08T04:12:11;11.54;76.96
68098;DHT22;54886;47.036;15.466;2023-05-08T04:14:43;11.52;76.97
68098;DHT22;54886;47.036;15.466;2023-05-08T04:17:11;11.49;76.91
68098;DHT22;54886;47.036;15.466;2023-05-08T04:19:45;11.48;77.51
68098;DHT22;54886;47.036;15.466;2023-05-08T04:22:11;11.43;77.32
68098;DHT22;54886;47.036;15.466;2023-05-08T04:24:41;11.41;77.43
68098;DHT22;54886;47.036;15.466;2023-05-08T04:27:08;11.36;76.18
68098;DHT22;54886;47.036;15.466;2023-05-08T04:29:34;11.27;76.34
68098;DHT22;54886;47.036;15.466;2023-05-08T04:32:00;11.34;76.65
68098;DHT22;54886;47.036;15.466;2023-05-08T04:34:27;11.30;77.24
68098;DHT22;54886;47.036;15.466;2023-05-08T04:36:53;11.30;76.68
68098;DHT22;54886;47.036;15.466;2023-05-08T04:39:18;11.31;76.89
68098;DHT22;54886;47.036;15.466;2023-05-08T04:41:44;11.28;76.37
68098;DHT22;54886;47.036;15.466;2023-05-08T04:44:09;11.21;75.81
68098;DHT22;54886;47.036;15.466;2023-05-08T04:46:35;11.15;75.70
68098;DHT22;54886;47.036;15.466;2023-05-08T04:49:01;11.10;75.93
68098;DHT22;54886;47.036;15.466;2023-05-08T04:51:26;11.04;75.59
68098;DHT22;54886;47.036;15.466;2023-05-08T04:53:51;11.00;76.97
68098;DHT22;54886;47.036;15.466;2023-05-08T04:56:17;10.97;76.47
68098;DHT22;54886;47.036;15.466;2023-05-08T04:58:43;10.97;77.32
68098;DHT22;54886;47.036;15.466;2023-05-08T05:01:08;10.94;76.84
68098;DHT22;54886;47.036;15.466;2023-05-08T05:03:34;10.90;76.20
68098;DHT22;54886;47.036;15.466;2023-05-08T05:06:01;10.94;76.92
68098;DHT22;54886;47.036;15.466;2023-05-08T05:08:26;10.94;77.04
68098;DHT22;54886;47.036;15.466;2023-05-08T05:10:52;10.89;77.50
68098;DHT22;54886;47.036;15.466;2023-05-08T05:13:17;10.93;77.04
68098;DHT22;54886;47.036;15.466;2023-05-08T05:15:44;10.99;77.03
68098;DHT22;54886;47.036;15.466;2023-05-08T05:18:09;10.97;77.36
68098;DHT22;54886;47.036;15.466;2023-05-08T05:20:35;11.01;78.00
68098;DHT22;54886;47.036;15.466;2023-05-08T05:23:01;10.96;78.26
68098;DHT22;54886;47.036;15.466;2023-05-08T05:25:27;10.96;78.04
68098;DHT22;54886;47.036;15.466;2023-05-08T05:27:52;10.89;77.50
68098;DHT22;54886;47.036;15.466;2023-05-08T05:30:18;10.89;77.53
68098;DHT22;54886;47.036;15.466;2023-05-08T05:32:43;10.86;78.23
68098;DHT22;54886;47.036;15.466;2023-05-08T05:35:09;10.92;78.19
68098;DHT22;54886;47.036;15.466;2023-05-08T05:37:34;10.84;77.90
68098;DHT22;54886;47.036;15.466;2023-05-08T05:40:00;10.81;78.47
68098;DHT22;54886;47.036;15.466;2023-05-08T05:42:26;10.81;78.37
68098;DHT22;54886;47.036;15.466;2023-05-08T05:44:51;10.80;79.00
68098;DHT22;54886;47.036;15.466;2023-05-08T05:47:16;10.79;79.22
68098;DHT22;54886;47.036;15.466;2023-05-08T05:49:42;10.81;78.73
68098;DHT22;54886;47.036;15.466;2023-05-08T05:52:11;10.80;79.11
68098;DHT22;54886;47.036;15.466;2023-05-08T05:54:37;10.79;79.85
68098;DHT22;54886;47.036;15.466;2023-05-08T05:57:03;10.89;78.35
68098;DHT22;54886;47.036;15.466;2023-05-08T05:59:28;10.92;77.72
68098;DHT22;54886;47.036;15.466;2023-05-08T06:01:55;10.84;77.85
68098;DHT22;54886;47.036;15.466;2023-05-08T06:04:20;10.80;77.98
68098;DHT22;54886;47.036;15.466;2023-05-08T06:06:46;10.75;77.99
68098;DHT22;54886;47.036;15.466;2023-05-08T06:09:12;10.80;78.05
68098;DHT22;54886;47.036;15.466;2023-05-08T06:11:37;10.79;78.08
68098;DHT22;54886;47.036;15.466;2023-05-08T06:14:03;10.80;77.87
68098;DHT22;54886;47.036;15.466;2023-05-08T06:16:28;10.86;78.14
68098;DHT22;54886;47.036;15.466;2023-05-08T06:18:55;10.81;78.04
68098;DHT22;54886;47.036;15.466;2023-05-08T06:21:20;10.83;78.16
68098;DHT22;54886;47.036;15.466;2023-05-08T06:23:46;10.83;77.99
68098;DHT22;54886;47.036;15.466;2023-05-08T06:26:11;10.86;78.07
68098;DHT22;54886;47.036;15.466;2023-05-08T06:28:37;10.84;78.42
68098;DHT22;54886;47.036;15.466;2023-05-08T06:31:02;10.84;77.42
68098;DHT22;54886;47.036;15.466;2023-05-08T06:33:27;10.89;77.81
68098;DHT22;54886;47.036;15.466;2023-05-08T06:35:54;10.87;77.00
68098;DHT22;54886;47.036;15.466;2023-05-08T06:38:19;10.87;77.33
68098;DHT22;54886;47.036;15.466;2023-05-08T06:40:45;10.93;77.90
68098;DHT22;54886;47.036;15.466;2023-05-08T06:43:11;10.94;77.18
68098;DHT22;54886;47.036;15.466;2023-05-08T06:45:38;10.90;77.06
68098;DHT22;54886;47.036;15.466;2023-05-08T06:48:03;10.90;77.44
68098;DHT22;54886;47.036;15.466;2023-05-08T06:50:29;10.92;75.90
68098;DHT22;54886;47.036;15.466;2023-05-08T06:52:55;10.86;77.42
68098;DHT22;54886;47.036;15.466;2023-05-08T06:55:21;10.87;77.58
68098;DHT22;54886;47.036;15.466;2023-05-08T06:57:46;10.92;77.26
68098;DHT22;54886;47.036;15.466;2023-05-08T07:00:12;10.92;77.42
68098;DHT22;54886;47.036;15.466;2023-05-08T07:02:37;11.01;77.20
68098;DHT22;54886;47.036;15.466;2023-05-08T07:05:03;11.04;76.63
68098;DHT22;54886;47.036;15.466;2023-05-08T07:07:28;11.06;77.16
68098;DHT22;54886;47.036;15.466;2023-05-08T07:09:54;11.03;77.19
68098;DHT22;54886;47.036;15.466;2023-05-08T07:12:19;11.06;77.14
68098;DHT22;54886;47.036;15.466;2023-05-08T07:14:45;11.07;76.69
68098;DHT22;54886;47.036;15.466;2023-05-08T07:17:10;11.08;78.03
68098;DHT22;54886;47.036;15.466;2023-05-08T07:19:36;11.04;76.29
68098;DHT22;54886;47.036;15.466;2023-05-08T07:22:03;11.03;76.87
68098;DHT22;54886;47.036;15.466;2023-05-08T07:24:30;11.04;78.30
68098;DHT22;54886;47.036;15.466;2023-05-08T07:26:55;11.13;78.21
68098;DHT22;54886;47.036;15.466;2023-05-08T07:29:20;11.15;77.78
68098;DHT22;54886;47.036;15.466;2023-05-08T07:31:46;11.15;76.62
68098;DHT22;54886;47.036;15.466;2023-05-08T07:34:13;11.15;77.22
68098;DHT22;54886;47.036;15.466;2023-05-08T07:36:38;11.20;78.11
68098;DHT22;54886;47.036;15.466;2023-05-08T07:39:04;11.20;77.77
68098;DHT22;54886;47.036;15.466;2023-05-08T07:41:30;11.25;77.38
68098;DHT22;54886;47.036;15.466;2023-05-08T07:43:56;11.28;77.59
68098;DHT22;54886;47.036;15.466;2023-05-08T07:46:21;11.25;76.96
68098;DHT22;54886;47.036;15.466;2023-05-08T07:48:47;11.31;78.34
68098;DHT22;54886;47.036;15.466;2023-05-08T07:51:13;11.28;76.98
68098;DHT22;54886;47.036;15.466;2023-05-08T07:53:39;11.34;77.21
68098;DHT22;54886;47.036;15.466;2023-05-08T07:56:05;11.31;76.45
68098;DHT22;54886;47.036;15.466;2023-05-08T07:58:30;11.34;76.97
68098;DHT22;54886;47.036;15.466;2023-05-08T08:00:56;11.34;78.39
68098;DHT22;54886;47.036;15.466;2023-05-08T08:03:21;11.42;77.50
68098;DHT22;54886;47.036;15.466;2023-05-08T08:05:46;11.36;78.68
68098;DHT22;54886;47.036;15.466;2023-05-08T08:08:12;11.42;77.12
68098;DHT22;54886;47.036;15.466;2023-05-08T08:10:37;11.38;78.18
68098;DHT22;54886;47.036;15.466;2023-05-08T08:13:04;11.45;78.99
68098;DHT22;54886;47.036;15.466;2023-05-08T08:15:29;11.46;79.12
68098;DHT22;54886;47.036;15.466;2023-05-08T08:17:55;11.52;78.68
68098;DHT22;54886;47.036;15.466;2023-05-08T08:20:21;11.54;78.58
68098;DHT22;54886;47.036;15.466;2023-05-08T08:22:46;11.59;78.99
68098;DHT22;54886;47.036;15.466;2023-05-08T08:25:12;11.63;78.52
68098;DHT22;54886;47.036;15.466;2023-05-08T08:27:39;11.63;78.72
68098;DHT22;54886;47.036;15.466;2023-05-08T08:30:06;11.65;79.44
68098;DHT22;54886;47.036;15.466;2023-05-08T08:32:31;11.66;78.34
68098;DHT22;54886;47.036;15.466;2023-05-08T08:34:57;11.73;76.96
68098;DHT22;54886;47.036;15.466;2023-05-08T08:37:22;11.75;77.97
68098;DHT22;54886;47.036;15.466;2023-05-08T08:39:48;11.73;77.23
68098;DHT22;54886;47.036;15.466;2023-05-08T08:42:14;11.73;78.77
68098;DHT22;54886;47.036;15.466;2023-05-08T08:44:39;11.72;77.10
68098;DHT22;54886;47.036;15.466;2023-05-08T08:47:09;11.73;77.42
68098;DHT22;54886;47.036;15.466;2023-05-08T08:49:35;11.82;77.10
68098;DHT22;54886;47.036;15.466;2023-05-08T08:52:40;11.86;76.96
68098;DHT22;54886;47.036;15.466;2023-05-08T08:55:11;11.82;78.16
68098;DHT22;54886;47.036;15.466;2023-05-08T08:57:44;11.82;77.84
68098;DHT22;54886;47.036;15.466;2023-05-08T09:00:13;11.83;78.67
68098;DHT22;54886;47.036;15.466;2023-05-08T09:02:39;11.90;77.75
68098;DHT22;54886;47.036;15.466;2023-05-08T09:05:05;11.90;76.61
68098;DHT22;54886;47.036;15.466;2023-05-08T09:07:31;11.85;78.24
68098;DHT22;54886;47.036;15.466;2023-05-08T09:09:57;11.91;77.93
68098;DHT22;54886;47.036;15.466;2023-05-08T09:12:23;11.91;77.88
68098;DHT22;54886;47.036;15.466;2023-05-08T09:14:49;11.97;78.44
68098;DHT22;54886;47.036;15.466;2023-05-08T09:17:15;11.93;77.73
68098;DHT22;54886;47.036;15.466;2023-05-08T09:19:41;11.94;76.96
68098;DHT22;54886;47.036;15.466;2023-05-08T09:22:07;11.93;78.06
68098;DHT22;54886;47.036;15.466;2023-05-08T09:24:56;11.98;79.03
68098;DHT22;54886;47.036;15.466;2023-05-08T09:27:23;12.06;77.83
68098;DHT22;54886;47.036;15.466;2023-05-08T09:30:04;12.07;77.66
68098;DHT22;54886;47.036;15.466;2023-05-08T09:32:31;12.06;77.67
68098;DHT22;54886;47.036;15.466;2023-05-08T09:34:58;12.08;76.89
68098;DHT22;54886;47.036;15.466;2023-05-08T09:37:25;12.13;77.28
68098;DHT22;54886;47.036;15.466;2023-05-08T09:39:51;12.13;77.18
68098;DHT22;54886;47.036;15.466;2023-05-08T09:42:16;12.14;76.75
68098;DHT22;54886;47.036;15.466;2023-05-08T09:44:46;12.13;76.44
68098;DHT22;54886;47.036;15.466;2023-05-08T09:47:17;12.16;76.67
68098;DHT22;54886;47.036;15.466;2023-05-08T09:52:30;12.10;77.61
68098;DHT22;54886;47.036;15.466;2023-05-08T09:57:25;12.14;77.25
68098;DHT22;54886;47.036;15.466;2023-05-08T09:59:51;12.16;76.56
68098;DHT22;54886;47.036;15.466;2023-05-08T10:02:24;12.12;77.32
68098;DHT22;54886;47.036;15.466;2023-05-08T10:04:50;12.14;77.22
68098;DHT22;54886;47.036;15.466;2023-05-08T10:07:26;12.13;76.47
68098;DHT22;54886;47.036;15.466;2023-05-08T10:10:03;12.13;77.29
68098;DHT22;54886;47.036;15.466;2023-05-08T10:12:29;12.17;77.13
68098;DHT22;54886;47.036;15.466;2023-05-08T10:14:55;12.17;76.83
68098;DHT22;54886;47.036;15.466;2023-05-08T10:17:29;12.10;77.60
68098;DHT22;54886;47.036;15.466;2023-05-08T10:19:58;12.12;77.36
68098;DHT22;54886;47.036;15.466;2023-05-08T10:22:25;12.14;76.55
68098;DHT22;54886;47.036;15.466;2023-05-08T10:24:56;12.10;76.39
68098;DHT22;54886;47.036;15.466;2023-05-08T10:30:18;12.12;77.10
68098;DHT22;54886;47.036;15.466;2023-05-08T10:32:48;12.07;77.59
68098;DHT22;54886;47.036;15.466;2023-05-08T10:35:17;12.08;76.91
68098;DHT22;54886;47.036;15.466;2023-05-08T10:37:44;12.06;77.81
68098;DHT22;54886;47.036;15.466;2023-05-08T10:40:10;12.03;77.36
68098;DHT22;54886;47.036;15.466;2023-05-08T10:42:37;12.12;77.68
68098;DHT22;54886;47.036;15.466;2023-05-08T10:45:06;12.10;77.58
68098;DHT22;54886;47.036;15.466;2023-05-08T10:47:40;12.06;77.09
68098;DHT22;54886;47.036;15.466;2023-05-08T10:50:35;12.01;77.46
68098;DHT22;54886;47.036;15.466;2023-05-08T10:53:21;12.10;77.05
68098;DHT22;54886;47.036;15.466;2023-05-08T10:55:50;12.04;77.64
68098;DHT22;54886;47.036;15.466;2023-05-08T11:03:24;12.06;77.56
68098;DHT22;54886;47.036;15.466;2023-05-08T11:05:51;12.01;77.40
68098;DHT22;54886;47.036;15.466;2023-05-08T11:08:22;12.03;78.08
68098;DHT22;54886;47.036;15.466;2023-05-08T11:13:51;12.07;77.55
68098;DHT22;54886;47.036;15.466;2023-05-08T11:16:17;12.07;77.39
68098;DHT22;54886;47.036;15.466;2023-05-08T11:19:15;12.14;77.74
68098;DHT22;54886;47.036;15.466;2023-05-08T11:25:02;12.25;77.07
68098;DHT22;54886;47.036;15.466;2023-05-08T11:35:51;12.16;77.83
68098;DHT22;54886;47.036;15.466;2023-05-08T11:46:12;12.45;78.27
68098;DHT22;54886;47.036;15.466;2023-05-08T11:48:38;12.52;77.31
68098;DHT22;54886;47.036;15.466;2023-05-08T11:51:04;12.56;76.85
68098;DHT22;54886;47.036;15.466;2023-05-08T11:53:29;12.62;76.91
68098;DHT22;54886;47.036;15.466;2023-05-08T11:55:56;12.65;77.01
68098;DHT22;54886;47.036;15.466;2023-05-08T11:58:21;12.68;78.96
68098;DHT22;54886;47.036;15.466;2023-05-08T12:00:48;12.73;77.29
68098;DHT22;54886;47.036;15.466;2023-05-08T12:03:15;12.79;77.08
68098;DHT22;54886;47.036;15.466;2023-05-08T12:05:41;12.83;76.48
68098;DHT22;54886;47.036;15.466;2023-05-08T12:08:07;12.78;77.82
68098;DHT22;54886;47.036;15.466;2023-05-08T12:10:55;12.95;77.81
68098;DHT22;54886;47.036;15.466;2023-05-08T12:15:54;13.08;77.06
68098;DHT22;54886;47.036;15.466;2023-05-08T12:18:21;13.08;76.94
68098;DHT22;54886;47.036;15.466;2023-05-08T12:20:55;13.10;76.30
68098;DHT22;54886;47.036;15.466;2023-05-08T12:23:22;13.18;75.61
68098;DHT22;54886;47.036;15.466;2023-05-08T12:25:50;13.24;76.55
68098;DHT22;54886;47.036;15.466;2023-05-08T12:28:16;13.37;75.80
68098;DHT22;54886;47.036;15.466;2023-05-08T12:30:42;13.44;74.89
68098;DHT22;54886;47.036;15.466;2023-05-08T12:33:08;13.45;75.12
68098;DHT22;54886;47.036;15.466;2023-05-08T12:35:35;13.47;75.69
68098;DHT22;54886;47.036;15.466;2023-05-08T12:38:02;13.48;75.83
68098;DHT22;54886;47.036;15.466;2023-05-08T12:40:30;13.48;76.06
68098;DHT22;54886;47.036;15.466;2023-05-08T12:42:56;13.54;76.20
68098;DHT22;54886;47.036;15.466;2023-05-08T12:45:25;13.62;75.18
68098;DHT22;54886;47.036;15.466;2023-05-08T12:47:53;13.62;75.03
68098;DHT22;54886;47.036;15.466;2023-05-08T12:50:22;13.73;75.28
68098;DHT22;54886;47.036;15.466;2023-05-08T12:52:50;13.79;74.60
68098;DHT22;54886;47.036;15.466;2023-05-08T12:55:26;13.86;74.47
68098;DHT22;54886;47.036;15.466;2023-05-08T12:58:06;13.96;74.72
68098;DHT22;54886;47.036;15.466;2023-05-08T13:00:43;14.07;73.50
68098;DHT22;54886;47.036;15.466;2023-05-08T13:03:11;14.10;72.93
68098;DHT22;54886;47.036;15.466;2023-05-08T13:05:41;14.17;73.61
68098;DHT22;54886;47.036;15.466;2023-05-08T13:08:08;14.28;73.97
68098;DHT22;54886;47.036;15.466;2023-05-08T13:10:56;14.28;72.74
68098;DHT22;54886;47.036;15.466;2023-05-08T13:13:26;14.42;73.53
68098;DHT22;54886;47.036;15.466;2023-05-08T13:15:54;14.44;73.33
68098;DHT22;54886;47.036;15.466;2023-05-08T13:18:22;14.45;74.03
68098;DHT22;54886;47.036;15.466;2023-05-08T13:20:48;14.46;73.27
68098;DHT22;54886;47.036;15.466;2023-05-08T13:23:14;14.34;72.28
68098;DHT22;54886;47.036;15.466;2023-05-08T13:25:39;14.44;73.68
68098;DHT22;54886;47.036;15.466;2023-05-08T13:28:07;14.52;73.07
68098;DHT22;54886;47.036;15.466;2023-05-08T13:30:33;14.54;72.14
68098;DHT22;54886;47.036;15.466;2023-05-08T13:32:59;14.62;72.40
68098;DHT22;54886;47.036;15.466;2023-05-08T13:35:25;14.72;72.48
68098;DHT22;54886;47.036;15.466;2023-05-08T13:37:53;14.76;72.56
68098;DHT22;54886;47.036;15.466;2023-05-08T13:40:18;14.78;73.04
68098;DHT22;54886;47.036;15.466;2023-05-08T13:42:44;14.72;72.99
68098;DHT22;54886;47.036;15.466;2023-05-08T13:45:09;14.67;72.42
68098;DHT22;54886;47.036;15.466;2023-05-08T13:47:37;14.68;72.90
68098;DHT22;54886;47.036;15.466;2023-05-08T13:50:02;14.68;72.44
68098;DHT22;54886;47.036;15.466;2023-05-08T13:52:28;14.67;71.93
68098;DHT22;54886;47.036;15.466;2023-05-08T13:54:54;14.65;72.56
68098;DHT22;54886;47.036;15.466;2023-05-08T13:57:20;14.67;72.27
68098;DHT22;54886;47.036;15.466;2023-05-08T13:59:46;14.62;71.68
68098;DHT22;54886;47.036;15.466;2023-05-08T14:02:12;14.65;72.49
68098;DHT22;54886;47.036;15.466;2023-05-08T14:04:38;14.65;73.00
68098;DHT22;54886;47.036;15.466;2023-05-08T14:07:03;14.68;72.96
68098;DHT22;54886;47.036;15.466;2023-05-08T14:09:29;14.68;73.20
68098;DHT22;54886;47.036;15.466;2023-05-08T14:11:54;14.73;73.05
68098;DHT22;54886;47.036;15.466;2023-05-08T14:14:20;14.76;73.41
68098;DHT22;54886;47.036;15.466;2023-05-08T14:16:45;14.73;72.58
68098;DHT22;54886;47.036;15.466;2023-05-08T14:19:11;14.78;73.73
68098;DHT22;54886;47.036;15.466;2023-05-08T14:21:36;14.85;73.28
68098;DHT22;54886;47.036;15.466;2023-05-08T14:24:01;14.85;72.61
68098;DHT22;54886;47.036;15.466;2023-05-08T14:26:27;14.83;73.46
68098;DHT22;54886;47.036;15.466;2023-05-08T14:28:52;14.82;72.92
68098;DHT22;54886;47.036;15.466;2023-05-08T14:31:18;14.86;73.30
68098;DHT22;54886;47.036;15.466;2023-05-08T14:33:43;14.75;72.99
68098;DHT22;54886;47.036;15.466;2023-05-08T14:36:09;14.73;72.99
68098;DHT22;54886;47.036;15.466;2023-05-08T14:38:34;14.75;72.72
68098;DHT22;54886;47.036;15.466;2023-05-08T14:40:59;14.73;73.35
68098;DHT22;54886;47.036;15.466;2023-05-08T14:43:25;14.78;72.76
68098;DHT22;54886;47.036;15.466;2023-05-08T14:45:50;14.82;72.90
68098;DHT22;54886;47.036;15.466;2023-05-08T14:48:16;14.80;72.39
68098;DHT22;54886;47.036;15.466;2023-05-08T14:50:41;14.82;72.56
68098;DHT22;54886;47.036;15.466;2023-05-08T14:53:07;14.83;72.59
68098;DHT22;54886;47.036;15.466;2023-05-08T14:55:32;14.86;72.77
68098;DHT22;54886;47.036;15.466;2023-05-08T14:57:58;14.85;71.93
68098;DHT22;54886;47.036;15.466;2023-05-08T15:00:23;14.89;72.55
68098;DHT22;54886;47.036;15.466;2023-05-08T15:02:49;14.83;71.03
68098;DHT22;54886;47.036;15.466;2023-05-08T15:05:14;14.90;71.92
68098;DHT22;54886;47.036;15.466;2023-05-08T15:07:40;14.90;71.35
68098;DHT22;54886;47.036;15.466;2023-05-08T15:10:05;14.93;71.45
68098;DHT22;54886;47.036;15.466;2023-05-08T15:12:31;14.93;70.98
68098;DHT22;54886;47.036;15.466;2023-05-08T15:14:57;14.90;71.50
68098;DHT22;54886;47.036;15.466;2023-05-08T15:17:23;14.93;72.18
68098;DHT22;54886;47.036;15.466;2023-05-08T15:19:48;14.95;72.41
68098;DHT22;54886;47.036;15.466;2023-05-08T15:22:14;14.96;72.20
68098;DHT22;54886;47.036;15.466;2023-05-08T15:24:39;14.96;71.92
68098;DHT22;54886;47.036;15.466;2023-05-08T15:27:05;14.97;72.65
68098;DHT22;54886;47.036;15.466;2023-05-08T15:29:30;15.00;71.88
68098;DHT22;54886;47.036;15.466;2023-05-08T15:31:56;15.02;71.85
68098;DHT22;54886;47.036;15.466;2023-05-08T15:34:21;15.03;71.88
68098;DHT22;54886;47.036;15.466;2023-05-08T15:36:47;15.02;71.37
68098;DHT22;54886;47.036;15.466;2023-05-08T15:39:13;15.02;72.17
68098;DHT22;54886;47.036;15.466;2023-05-08T15:41:38;15.04;72.12
68098;DHT22;54886;47.036;15.466;2023-05-08T15:44:06;15.04;72.18
68098;DHT22;54886;47.036;15.466;2023-05-08T15:46:31;15.02;71.25
68098;DHT22;54886;47.036;15.466;2023-05-08T15:48:57;14.99;72.13
68098;DHT22;54886;47.036;15.466;2023-05-08T15:51:22;15.02;71.78
68098;DHT22;54886;47.036;15.466;2023-05-08T15:53:48;15.02;71.74
68098;DHT22;54886;47.036;15.466;2023-05-08T15:56:13;15.02;71.84
68098;DHT22;54886;47.036;15.466;2023-05-08T15:58:38;15.02;71.73
68098;DHT22;54886;47.036;15.466;2023-05-08T16:01:05;14.99;71.01
68098;DHT22;54886;47.036;15.466;2023-05-08T16:03:31;15.00;71.37
68098;DHT22;54886;47.036;15.466;2023-05-08T16:05:56;14.97;72.12
68098;DHT22;54886;47.036;15.466;2023-05-08T16:08:22;15.02;72.67
68098;DHT22;54886;47.036;15.466;2023-05-08T16:10:47;15.00;72.23
68098;DHT22;54886;47.036;15.466;2023-05-08T16:13:13;15.00;73.36
68098;DHT22;54886;47.036;15.466;2023-05-08T16:15:39;14.99;73.69
68098;DHT22;54886;47.036;15.466;2023-05-08T16:18:05;15.00;73.55
68098;DHT22;54886;47.036;15.466;2023-05-08T16:20:31;14.96;73.52